sensor_id;sensor_type;location;lat;lon;timestamp;temperature;humidity
18868;DHT22;9563;49.240;9.088;2023-02-28T00:01:05;1.30;99.90
18868;DHT22;9563;49.240;9.088;2023-02-28T00:03:31;1.20;99.90
18868;DHT22;9563;49.240;9.088;2023-02-28T00:06:02;1.20;99.90
18868;DHT22;9563;49.240;9.088;2023-02-28T00:08:30;1.20;99.90
18868;DHT22;9563;49.240;9.088;2023-02-28T00:11:01;1.20;99.90
18868;DHT22;9563;49.240;9.088;2023-02-28T00:13:27;1.10;99.90
18868;DHT22;9563;49.240;9.088;2023-02-28T00:16:02;1.20;99.90
18868;DHT22;9563;49.240;9.088;2023-02-28T00:18:29;1.20;99.90
18868;DHT22;9563;49.240;9.088;2023-02-28T00:20:57;1.20;99.90
18868;DHT22;9563;49.240;9.088;2023-02-28T00:23:25;1.30;99.90
18868;DHT22;9563;49.240;9.088;2023-02-28T00:25:52;1.30;99.90
18868;DHT22;9563;49.240;9.088;2023-02-28T00:28:21;1.30;99.90
18868;DHT22;9563;49.240;9.088;2023-02-28T00:30:48;1.20;99.90
18868;DHT22;9563;49.240;9.088;2023-02-28T00:33:15;1.20;99.90
18868;DHT22;9563;49.240;9.088;2023-02-28T00:35:42;1.10;99.90
18868;DHT22;9563;49.240;9.088;2023-02-28T00:38:12;1.00;99.90
18868;DHT22;9563;49.240;9.088;2023-02-28T00:40:39;1.00;99.90
18868;DHT22;9563;49.240;9.088;2023-02-28T00:43:06;1.00;99.90
18868;DHT22;9563;49.240;9.088;2023-02-28T00:45:34;1.10;99.90
18868;DHT22;9563;49.240;9.088;2023-02-28T00:48:01;1.00;99.90
18868;DHT22;9563;49.240;9.088;2023-02-28T00:50:28;1.10;99.90
18868;DHT22;9563;49.240;9.088;2023-02-28T00:52:55;1.00;99.90
18868;DHT22;9563;49.240;9.088;2023-02-28T00:55:22;1.00;99.90
18868;DHT22;9563;49.240;9.088;2023-02-28T00:57:48;1.10;99.90
18868;DHT22;9563;49.240;9.088;2023-02-28T01:00:15;1.00;99.90
18868;DHT22;9563;49.240;9.088;2023-02-28T01:02:44;1.00;99.90
18868;DHT22;9563;49.240;9.088;2023-02-28T01:05:10;0.90;99.90
18868;DHT22;9563;49.240;9.088;2023-02-28T01:07:37;0.90;99.90
18868;DHT22;9563;49.240;9.088;2023-02-28T01:10:05;0.90;99.90
18868;DHT22;9563;49.240;9.088;2023-02-28T01:12:32;0.80;99.90
18868;DHT22;9563;49.240;9.088;2023-02-28T01:14:59;0.80;99.90
18868;DHT22;9563;49.240;9.088;2023-02-28T01:17:26;0.70;99.90
18868;DHT22;9563;49.240;9.088;2023-02-28T01:19:55;0.80;99.90
18868;DHT22;9563;49.240;9.088;2023-02-28T01:22:22;0.70;99.90
18868;DHT22;9563;49.240;9.088;2023-02-28T01:24:49;0.70;99.90
18868;DHT22;9563;49.240;9.088;2023-02-28T01:27:16;0.70;99.90
18868;DHT22;9563;49.240;9.088;2023-02-28T01:29:42;0.70;99.90
18868;DHT22;9563;49.240;9.088;2023-02-28T01:32:09;0.70;99.90
18868;DHT22;9563;49.240;9.088;2023-02-28T01:34:36;0.60;99.90
18868;DHT22;9563;49.240;9.088;2023-02-28T01:37:04;0.60;99.90
18868;DHT22;9563;49.240;9.088;2023-02-28T01:39:31;0.60;99.90
18868;DHT22;9563;49.240;9.088;2023-02-28T01:41:58;0.50;99.90
18868;DHT22;9563;49.240;9.088;2023-02-28T01:45:01;0.50;99.90
18868;DHT22;9563;49.240;9.088;2023-02-28T01:47:30;0.50;99.90
18868;DHT22;9563;49.240;9.088;2023-02-28T01:49:58;0.50;99.90
18868;DHT22;9563;49.240;9.088;2023-02-28T01:52:28;0.50;99.90
18868;DHT22;9563;49.240;9.088;2023-02-28T01:54:56;0.50;99.90
18868;DHT22;9563;49.240;9.088;2023-02-28T01:57:28;0.50;99.90
18868;DHT22;9563;49.240;9.088;2023-02-28T02:00:07;0.50;99.90
18868;DHT22;9563;49.240;9.088;2023-02-28T02:02:36;0.40;99.90
18868;DHT22;9563;49.240;9.088;2023-02-28T02:05:05;0.50;99.90
18868;DHT22;9563;49.240;9.088;2023-02-28T02:07:36;0.50;99.90
18868;DHT22;9563;49.240;9.088;2023-02-28T02:10:09;0.40;99.90
18868;DHT22;9563;49.240;9.088;2023-02-28T02:15:47;0.40;99.90
18868;DHT22;9563;49.240;9.088;2023-02-28T02:18:25;0.40;99.90
18868;DHT22;9563;49.240;9.088;2023-02-28T02:21:29;0.30;99.90
18868;DHT22;9563;49.240;9.088;2023-02-28T02:24:33;0.30;99.90
18868;DHT22;9563;49.240;9.088;2023-02-28T02:27:16;0.20;99.90
18868;DHT22;9563;49.240;9.088;2023-02-28T02:33:06;0.20;99.90
18868;DHT22;9563;49.240;9.088;2023-02-28T02:35:41;0.20;99.90
18868;DHT22;9563;49.240;9.088;2023-02-28T02:38:31;0.10;99.90
18868;DHT22;9563;49.240;9.088;2023-02-28T02:41:08;0.10;99.90
18868;DHT22;9563;49.240;9.088;2023-02-28T02:43:40;0.10;99.90
18868;DHT22;9563;49.240;9.088;2023-02-28T02:46:14;0.10;99.90
18868;DHT22;9563;49.240;9.088;2023-02-28T02:48:42;0.00;99.90
18868;DHT22;9563;49.240;9.088;2023-02-28T02:51:14;0.00;99.90
18868;DHT22;9563;49.240;9.088;2023-02-28T02:53:46;0.00;99.90
18868;DHT22;9563;49.240;9.088;2023-02-28T02:56:17;0.00;99.90
18868;DHT22;9563;49.240;9.088;2023-02-28T02:58:47;0.00;99.90
18868;DHT22;9563;49.240;9.088;2023-02-28T03:01:19;0.00;99.90
18868;DHT22;9563;49.240;9.088;2023-02-28T03:03:55;0.10;99.90
18868;DHT22;9563;49.240;9.088;2023-02-28T03:06:24;0.20;99.90
18868;DHT22;9563;49.240;9.088;2023-02-28T03:08:51;0.10;99.90
18868;DHT22;9563;49.240;9.088;2023-02-28T03:11:18;0.10;99.90
18868;DHT22;9563;49.240;9.088;2023-02-28T03:14:04;0.10;99.90
18868;DHT22;9563;49.240;9.088;2023-02-28T03:16:38;0.10;99.90
18868;DHT22;9563;49.240;9.088;2023-02-28T03:19:25;0.10;99.90
18868;DHT22;9563;49.240;9.088;2023-02-28T03:22:14;0.10;99.90
18868;DHT22;9563;49.240;9.088;2023-02-28T03:24:48;0.00;99.90
18868;DHT22;9563;49.240;9.088;2023-02-28T03:27:21;-0.10;99.90
18868;DHT22;9563;49.240;9.088;2023-02-28T03:29:55;-0.10;99.90
18868;DHT22;9563;49.240;9.088;2023-02-28T03:32:26;-0.10;99.90
18868;DHT22;9563;49.240;9.088;2023-02-28T03:34:58;-0.20;99.90
18868;DHT22;9563;49.240;9.088;2023-02-28T03:37:31;-0.10;99.90
18868;DHT22;9563;49.240;9.088;2023-02-28T03:40:03;-0.10;99.90
18868;DHT22;9563;49.240;9.088;2023-02-28T03:42:36;-0.10;99.90
18868;DHT22;9563;49.240;9.088;2023-02-28T03:45:05;-0.10;99.90
18868;DHT22;9563;49.240;9.088;2023-02-28T03:47:38;-0.10;99.90
18868;DHT22;9563;49.240;9.088;2023-02-28T03:50:09;-0.10;99.90
18868;DHT22;9563;49.240;9.088;2023-02-28T03:52:41;-0.10;99.90
18868;DHT22;9563;49.240;9.088;2023-02-28T03:55:13;-0.10;99.90
18868;DHT22;9563;49.240;9.088;2023-02-28T03:57:47;-0.10;99.90
18868;DHT22;9563;49.240;9.088;2023-02-28T04:00:19;0.00;99.90
18868;DHT22;9563;49.240;9.088;2023-02-28T04:02:47;0.10;99.90
18868;DHT22;9563;49.240;9.088;2023-02-28T04:05:18;0.10;99.90
18868;DHT22;9563;49.240;9.088;2023-02-28T04:07:46;0.10;99.90
18868;DHT22;9563;49.240;9.088;2023-02-28T04:10:15;0.10;99.90
18868;DHT22;9563;49.240;9.088;2023-02-28T04:12:42;0.10;99.90
18868;DHT22;9563;49.240;9.088;2023-02-28T04:15:09;0.10;99.90
18868;DHT22;9563;49.240;9.088;2023-02-28T04:17:36;0.10;99.90
18868;DHT22;9563;49.240;9.088;2023-02-28T04:20:04;0.10;99.90
18868;DHT22;9563;49.240;9.088;2023-02-28T04:22:35;0.10;99.90
18868;DHT22;9563;49.240;9.088;2023-02-28T04:25:06;0.20;99.90
18868;DHT22;9563;49.240;9.088;2023-02-28T04:27:33;0.20;99.90
18868;DHT22;9563;49.240;9.088;2023-02-28T04:30:18;0.20;99.90
18868;DHT22;9563;49.240;9.088;2023-02-28T04:32:45;0.30;99.90
18868;DHT22;9563;49.240;9.088;2023-02-28T04:35:12;0.20;99.90
18868;DHT22;9563;49.240;9.088;2023-02-28T04:37:39;0.20;99.90
18868;DHT22;9563;49.240;9.088;2023-02-28T04:40:09;0.10;99.90
18868;DHT22;9563;49.240;9.088;2023-02-28T04:42:36;0.10;99.90
18868;DHT22;9563;49.240;9.088;2023-02-28T04:45:04;0.10;99.90
18868;DHT22;9563;49.240;9.088;2023-02-28T04:47:31;0.00;99.90
18868;DHT22;9563;49.240;9.088;2023-02-28T04:49:57;0.00;99.90
18868;DHT22;9563;49.240;9.088;2023-02-28T04:52:24;0.00;99.90
18868;DHT22;9563;49.240;9.088;2023-02-28T04:54:51;0.10;99.90
18868;DHT22;9563;49.240;9.088;2023-02-28T04:57:19;0.10;99.90
18868;DHT22;9563;49.240;9.088;2023-02-28T04:59:46;0.10;99.90
18868;DHT22;9563;49.240;9.088;2023-02-28T05:02:13;0.10;99.90
18868;DHT22;9563;49.240;9.088;2023-02-28T05:04:40;0.00;99.90
18868;DHT22;9563;49.240;9.088;2023-02-28T05:07:06;0.00;99.90
18868;DHT22;9563;49.240;9.088;2023-02-28T05:09:33;0.10;99.90
18868;DHT22;9563;49.240;9.088;2023-02-28T05:12:00;0.10;99.90
18868;DHT22;9563;49.240;9.088;2023-02-28T05:14:28;0.00;99.90
18868;DHT22;9563;49.240;9.088;2023-02-28T05:16:55;0.10;99.90
18868;DHT22;9563;49.240;9.088;2023-02-28T05:19:22;0.10;99.90
18868;DHT22;9563;49.240;9.088;2023-02-28T05:21:51;0.10;99.90
18868;DHT22;9563;49.240;9.088;2023-02-28T05:24:18;0.10;99.90
18868;DHT22;9563;49.240;9.088;2023-02-28T05:26:49;0.10;99.90
18868;DHT22;9563;49.240;9.088;2023-02-28T05:29:17;0.10;99.90
18868;DHT22;9563;49.240;9.088;2023-02-28T05:31:46;0.10;99.90
18868;DHT22;9563;49.240;9.088;2023-02-28T05:34:13;0.10;99.90
18868;DHT22;9563;49.240;9.088;2023-02-28T05:36:41;0.10;99.90
18868;DHT22;9563;49.240;9.088;2023-02-28T05:39:09;0.10;99.90
18868;DHT22;9563;49.240;9.088;2023-02-28T05:41:39;0.10;99.90
18868;DHT22;9563;49.240;9.088;2023-02-28T05:44:06;0.10;99.90
18868;DHT22;9563;49.240;9.088;2023-02-28T05:46:33;0.10;99.90
18868;DHT22;9563;49.240;9.088;2023-02-28T05:49:02;0.10;99.90
18868;DHT22;9563;49.240;9.088;2023-02-28T05:51:30;0.10;99.90
18868;DHT22;9563;49.240;9.088;2023-02-28T05:54:02;0.10;99.90
18868;DHT22;9563;49.240;9.088;2023-02-28T05:56:29;0.10;99.90
18868;DHT22;9563;49.240;9.088;2023-02-28T05:58:56;0.10;99.90
18868;DHT22;9563;49.240;9.088;2023-02-28T06:01:30;0.10;99.90
18868;DHT22;9563;49.240;9.088;2023-02-28T06:03:58;0.10;99.90
18868;DHT22;9563;49.240;9.088;2023-02-28T06:06:26;0.00;99.90
18868;DHT22;9563;49.240;9.088;2023-02-28T06:08:53;0.00;99.90
18868;DHT22;9563;49.240;9.088;2023-02-28T06:11:20;0.00;99.90
18868;DHT22;9563;49.240;9.088;2023-02-28T06:13:53;0.00;99.90
18868;DHT22;9563;49.240;9.088;2023-02-28T06:16:20;0.00;99.90
18868;DHT22;9563;49.240;9.088;2023-02-28T06:18:47;0.00;99.90
18868;DHT22;9563;49.240;9.088;2023-02-28T06:21:14;0.00;99.90
18868;DHT22;9563;49.240;9.088;2023-02-28T06:23:42;0.00;99.90
18868;DHT22;9563;49.240;9.088;2023-02-28T06:26:10;-0.10;99.90
18868;DHT22;9563;49.240;9.088;2023-02-28T06:28:37;-0.10;99.90
18868;DHT22;9563;49.240;9.088;2023-02-28T06:31:07;-0.10;99.90
18868;DHT22;9563;49.240;9.088;2023-02-28T06:33:35;0.00;99.90
18868;DHT22;9563;49.240;9.088;2023-02-28T06:36:02;0.10;99.90
18868;DHT22;9563;49.240;9.088;2023-02-28T06:38:29;0.20;99.90
18868;DHT22;9563;49.240;9.088;2023-02-28T06:40:58;0.20;99.90
18868;DHT22;9563;49.240;9.088;2023-02-28T06:43:27;0.30;99.90
18868;DHT22;9563;49.240;9.088;2023-02-28T06:45:54;0.30;99.90
18868;DHT22;9563;49.240;9.088;2023-02-28T06:48:22;0.40;99.90
18868;DHT22;9563;49.240;9.088;2023-02-28T06:50:49;0.40;99.90
18868;DHT22;9563;49.240;9.088;2023-02-28T06:53:16;0.30;99.90
18868;DHT22;9563;49.240;9.088;2023-02-28T06:55:43;0.40;99.90
18868;DHT22;9563;49.240;9.088;2023-02-28T06:58:11;0.50;99.90
18868;DHT22;9563;49.240;9.088;2023-02-28T07:00:41;0.50;99.90
18868;DHT22;9563;49.240;9.088;2023-02-28T07:03:08;0.60;99.90
18868;DHT22;9563;49.240;9.088;2023-02-28T07:05:35;0.70;99.90
18868;DHT22;9563;49.240;9.088;2023-02-28T07:08:01;0.80;99.90
18868;DHT22;9563;49.240;9.088;2023-02-28T07:10:29;0.90;99.90
18868;DHT22;9563;49.240;9.088;2023-02-28T07:12:56;1.10;99.90
18868;DHT22;9563;49.240;9.088;2023-02-28T07:15:24;1.30;99.90
18868;DHT22;9563;49.240;9.088;2023-02-28T07:17:51;1.40;99.90
18868;DHT22;9563;49.240;9.088;2023-02-28T07:20:19;1.50;99.90
18868;DHT22;9563;49.240;9.088;2023-02-28T07:22:46;1.70;99.90
18868;DHT22;9563;49.240;9.088;2023-02-28T07:25:20;1.80;99.90
18868;DHT22;9563;49.240;9.088;2023-02-28T07:27:47;1.90;99.90
18868;DHT22;9563;49.240;9.088;2023-02-28T07:30:14;1.90;99.90
18868;DHT22;9563;49.240;9.088;2023-02-28T07:32:43;2.00;99.90
18868;DHT22;9563;49.240;9.088;2023-02-28T07:35:09;2.20;99.90
18868;DHT22;9563;49.240;9.088;2023-02-28T07:37:37;2.30;99.90
18868;DHT22;9563;49.240;9.088;2023-02-28T07:40:04;2.40;99.90
18868;DHT22;9563;49.240;9.088;2023-02-28T07:42:34;2.50;99.90
18868;DHT22;9563;49.240;9.088;2023-02-28T07:45:02;2.40;99.90
18868;DHT22;9563;49.240;9.088;2023-02-28T07:47:29;2.70;99.90
18868;DHT22;9563;49.240;9.088;2023-02-28T07:49:58;2.80;99.90
18868;DHT22;9563;49.240;9.088;2023-02-28T07:52:25;3.10;99.90
18868;DHT22;9563;49.240;9.088;2023-02-28T07:54:52;3.10;99.90
18868;DHT22;9563;49.240;9.088;2023-02-28T07:57:19;3.30;99.90
18868;DHT22;9563;49.240;9.088;2023-02-28T07:59:46;3.50;99.90
18868;DHT22;9563;49.240;9.088;2023-02-28T08:02:14;3.60;99.90
18868;DHT22;9563;49.240;9.088;2023-02-28T08:04:41;3.60;99.90
18868;DHT22;9563;49.240;9.088;2023-02-28T08:07:09;3.70;99.90
18868;DHT22;9563;49.240;9.088;2023-02-28T08:09:38;3.80;99.90
18868;DHT22;9563;49.240;9.088;2023-02-28T08:12:06;3.90;99.90
18868;DHT22;9563;49.240;9.088;2023-02-28T08:14:33;4.00;99.90
18868;DHT22;9563;49.240;9.088;2023-02-28T08:17:00;4.10;99.90
18868;DHT22;9563;49.240;9.088;2023-02-28T08:19:27;4.20;99.90
18868;DHT22;9563;49.240;9.088;2023-02-28T08:21:54;4.40;99.90
18868;DHT22;9563;49.240;9.088;2023-02-28T08:24:23;4.50;99.90
18868;DHT22;9563;49.240;9.088;2023-02-28T08:26:50;4.70;99.90
18868;DHT22;9563;49.240;9.088;2023-02-28T08:29:17;4.50;99.90
18868;DHT22;9563;49.240;9.088;2023-02-28T08:31:44;4.50;99.90
18868;DHT22;9563;49.240;9.088;2023-02-28T08:34:12;4.40;99.90
18868;DHT22;9563;49.240;9.088;2023-02-28T08:36:40;4.40;99.90
18868;DHT22;9563;49.240;9.088;2023-02-28T08:39:08;4.30;99.90
18868;DHT22;9563;49.240;9.088;2023-02-28T08:41:37;4.40;99.90
18868;DHT22;9563;49.240;9.088;2023-02-28T08:44:04;4.70;99.90
18868;DHT22;9563;49.240;9.088;2023-02-28T08:46:31;4.90;99.90
18868;DHT22;9563;49.240;9.088;2023-02-28T08:48:58;5.00;99.90
18868;DHT22;9563;49.240;9.088;2023-02-28T08:51:27;5.10;99.90
18868;DHT22;9563;49.240;9.088;2023-02-28T08:53:56;5.30;99.90
18868;DHT22;9563;49.240;9.088;2023-02-28T08:56:25;5.40;99.90
18868;DHT22;9563;49.240;9.088;2023-02-28T08:58:55;5.40;99.90
18868;DHT22;9563;49.240;9.088;2023-02-28T09:01:24;5.30;99.90
18868;DHT22;9563;49.240;9.088;2023-02-28T09:03:52;5.50;99.90
18868;DHT22;9563;49.240;9.088;2023-02-28T09:06:21;5.70;99.90
18868;DHT22;9563;49.240;9.088;2023-02-28T09:08:48;5.70;99.90
18868;DHT22;9563;49.240;9.088;2023-02-28T09:11:15;5.80;99.90
18868;DHT22;9563;49.240;9.088;2023-02-28T09:13:42;6.00;99.90
18868;DHT22;9563;49.240;9.088;2023-02-28T09:16:13;5.90;99.90
18868;DHT22;9563;49.240;9.088;2023-02-28T09:18:41;6.30;99.90
18868;DHT22;9563;49.240;9.088;2023-02-28T09:21:10;6.40;99.90
18868;DHT22;9563;49.240;9.088;2023-02-28T09:23:39;6.40;99.90
18868;DHT22;9563;49.240;9.088;2023-02-28T09:26:07;6.70;99.90
18868;DHT22;9563;49.240;9.088;2023-02-28T09:28:34;6.50;99.90
18868;DHT22;9563;49.240;9.088;2023-02-28T09:31:01;6.70;99.90
18868;DHT22;9563;49.240;9.088;2023-02-28T09:33:31;6.80;99.90
18868;DHT22;9563;49.240;9.088;2023-02-28T09:36:00;7.00;99.90
18868;DHT22;9563;49.240;9.088;2023-02-28T09:38:28;7.00;99.90
18868;DHT22;9563;49.240;9.088;2023-02-28T09:40:57;7.10;99.60
18868;DHT22;9563;49.240;9.088;2023-02-28T09:43:27;7.30;99.90
18868;DHT22;9563;49.240;9.088;2023-02-28T09:45:59;7.50;98.50
18868;DHT22;9563;49.240;9.088;2023-02-28T09:48:31;7.60;97.50
18868;DHT22;9563;49.240;9.088;2023-02-28T09:51:03;7.60;97.70
18868;DHT22;9563;49.240;9.088;2023-02-28T09:53:32;7.80;97.90
18868;DHT22;9563;49.240;9.088;2023-02-28T09:56:03;7.90;96.70
18868;DHT22;9563;49.240;9.088;2023-02-28T09:58:36;8.00;96.40
18868;DHT22;9563;49.240;9.088;2023-02-28T10:01:12;8.30;95.70
18868;DHT22;9563;49.240;9.088;2023-02-28T10:03:47;8.30;95.40
18868;DHT22;9563;49.240;9.088;2023-02-28T10:06:18;8.40;94.60
18868;DHT22;9563;49.240;9.088;2023-02-28T10:08:52;8.20;93.80
18868;DHT22;9563;49.240;9.088;2023-02-28T10:11:20;7.90;94.10
18868;DHT22;9563;49.240;9.088;2023-02-28T10:13:52;7.80;95.60
18868;DHT22;9563;49.240;9.088;2023-02-28T10:16:25;7.90;94.90
18868;DHT22;9563;49.240;9.088;2023-02-28T10:18:59;7.70;95.10
18868;DHT22;9563;49.240;9.088;2023-02-28T10:21:31;7.60;95.30
18868;DHT22;9563;49.240;9.088;2023-02-28T10:24:04;7.80;95.10
18868;DHT22;9563;49.240;9.088;2023-02-28T10:26:37;8.10;94.50
18868;DHT22;9563;49.240;9.088;2023-02-28T10:29:08;7.90;94.50
18868;DHT22;9563;49.240;9.088;2023-02-28T10:31:35;7.80;94.50
18868;DHT22;9563;49.240;9.088;2023-02-28T10:34:03;8.10;95.00
18868;DHT22;9563;49.240;9.088;2023-02-28T10:36:32;8.30;94.40
18868;DHT22;9563;49.240;9.088;2023-02-28T10:38:58;8.60;94.80
18868;DHT22;9563;49.240;9.088;2023-02-28T10:41:30;8.70;92.80
18868;DHT22;9563;49.240;9.088;2023-02-28T10:44:14;8.50;92.10
18868;DHT22;9563;49.240;9.088;2023-02-28T10:46:42;8.40;92.70
18868;DHT22;9563;49.240;9.088;2023-02-28T10:49:15;7.90;92.50
18868;DHT22;9563;49.240;9.088;2023-02-28T10:51:43;7.20;93.70
18868;DHT22;9563;49.240;9.088;2023-02-28T10:54:27;6.80;95.20
18868;DHT22;9563;49.240;9.088;2023-02-28T10:57:11;6.60;96.00
18868;DHT22;9563;49.240;9.088;2023-02-28T10:59:41;6.10;96.50
18868;DHT22;9563;49.240;9.088;2023-02-28T11:02:29;6.00;97.40
18868;DHT22;9563;49.240;9.088;2023-02-28T11:05:35;5.90;98.60
18868;DHT22;9563;49.240;9.088;2023-02-28T11:08:05;6.00;98.70
18868;DHT22;9563;49.240;9.088;2023-02-28T11:10:33;6.20;98.40
18868;DHT22;9563;49.240;9.088;2023-02-28T11:13:00;6.50;98.00
18868;DHT22;9563;49.240;9.088;2023-02-28T11:15:30;6.40;97.30
18868;DHT22;9563;49.240;9.088;2023-02-28T11:17:59;6.60;97.40
18868;DHT22;9563;49.240;9.088;2023-02-28T11:20:30;7.20;96.80
18868;DHT22;9563;49.240;9.088;2023-02-28T11:23:01;7.80;96.20
18868;DHT22;9563;49.240;9.088;2023-02-28T11:25:30;7.80;94.10
18868;DHT22;9563;49.240;9.088;2023-02-28T11:27:59;7.80;93.80
18868;DHT22;9563;49.240;9.088;2023-02-28T11:30:35;7.90;93.30
18868;DHT22;9563;49.240;9.088;2023-02-28T11:33:21;7.40;94.10
18868;DHT22;9563;49.240;9.088;2023-02-28T11:35:51;7.30;94.90
18868;DHT22;9563;49.240;9.088;2023-02-28T11:38:19;7.10;95.80
18868;DHT22;9563;49.240;9.088;2023-02-28T11:40:50;6.90;95.40
18868;DHT22;9563;49.240;9.088;2023-02-28T11:43:33;7.00;96.60
18868;DHT22;9563;49.240;9.088;2023-02-28T11:46:11;7.00;95.60
18868;DHT22;9563;49.240;9.088;2023-02-28T11:48:51;7.10;96.10
18868;DHT22;9563;49.240;9.088;2023-02-28T11:51:26;7.00;96.20
18868;DHT22;9563;49.240;9.088;2023-02-28T11:54:23;6.90;97.20
18868;DHT22;9563;49.240;9.088;2023-02-28T11:56:55;7.00;97.10
18868;DHT22;9563;49.240;9.088;2023-02-28T11:59:38;7.60;96.70
18868;DHT22;9563;49.240;9.088;2023-02-28T12:02:22;7.50;95.50
18868;DHT22;9563;49.240;9.088;2023-02-28T12:04:59;7.20;96.10
18868;DHT22;9563;49.240;9.088;2023-02-28T12:07:34;7.10;96.90
18868;DHT22;9563;49.240;9.088;2023-02-28T12:10:11;7.00;97.10
18868;DHT22;9563;49.240;9.088;2023-02-28T12:12:50;6.90;96.50
18868;DHT22;9563;49.240;9.088;2023-02-28T12:15:28;7.00;98.00
18868;DHT22;9563;49.240;9.088;2023-02-28T12:18:10;7.20;97.30
18868;DHT22;9563;49.240;9.088;2023-02-28T12:20:49;7.30;96.70
18868;DHT22;9563;49.240;9.088;2023-02-28T12:23:40;7.20;96.30
18868;DHT22;9563;49.240;9.088;2023-02-28T12:26:15;7.30;96.50
18868;DHT22;9563;49.240;9.088;2023-02-28T12:28:47;7.40;96.00
18868;DHT22;9563;49.240;9.088;2023-02-28T12:31:19;7.60;96.30
18868;DHT22;9563;49.240;9.088;2023-02-28T12:33:52;7.60;95.20
18868;DHT22;9563;49.240;9.088;2023-02-28T12:36:20;7.70;94.80
18868;DHT22;9563;49.240;9.088;2023-02-28T12:38:53;7.90;95.10
18868;DHT22;9563;49.240;9.088;2023-02-28T12:41:29;7.80;95.00
18868;DHT22;9563;49.240;9.088;2023-02-28T12:44:01;7.60;94.60
18868;DHT22;9563;49.240;9.088;2023-02-28T12:46:32;7.50;94.50
18868;DHT22;9563;49.240;9.088;2023-02-28T12:49:05;7.40;96.10
18868;DHT22;9563;49.240;9.088;2023-02-28T12:51:35;7.30;96.80
18868;DHT22;9563;49.240;9.088;2023-02-28T12:54:12;7.10;96.30
18868;DHT22;9563;49.240;9.088;2023-02-28T12:56:45;7.00;96.60
18868;DHT22;9563;49.240;9.088;2023-02-28T12:59:22;6.90;96.60
18868;DHT22;9563;49.240;9.088;2023-02-28T13:05:24;6.70;97.30
18868;DHT22;9563;49.240;9.088;2023-02-28T13:11:07;7.00;96.80
18868;DHT22;9563;49.240;9.088;2023-02-28T13:13:57;6.90;97.40
18868;DHT22;9563;49.240;9.088;2023-02-28T13:16:25;7.00;97.50
18868;DHT22;9563;49.240;9.088;2023-02-28T13:18:52;7.00;98.20
18868;DHT22;9563;49.240;9.088;2023-02-28T13:21:23;7.10;97.20
18868;DHT22;9563;49.240;9.088;2023-02-28T13:24:02;6.80;96.80
18868;DHT22;9563;49.240;9.088;2023-02-28T13:29:40;7.00;97.30
18868;DHT22;9563;49.240;9.088;2023-02-28T13:32:20;7.00;97.50
18868;DHT22;9563;49.240;9.088;2023-02-28T13:35:37;7.00;97.10
18868;DHT22;9563;49.240;9.088;2023-02-28T13:38:39;6.80;97.50
18868;DHT22;9563;49.240;9.088;2023-02-28T13:41:41;7.00;97.80
18868;DHT22;9563;49.240;9.088;2023-02-28T13:44:09;7.10;97.10
18868;DHT22;9563;49.240;9.088;2023-02-28T13:49:41;7.10;95.70
18868;DHT22;9563;49.240;9.088;2023-02-28T13:52:14;7.10;96.40
18868;DHT22;9563;49.240;9.088;2023-02-28T13:54:56;7.00;96.60
18868;DHT22;9563;49.240;9.088;2023-02-28T13:57:32;7.30;96.30
18868;DHT22;9563;49.240;9.088;2023-02-28T14:00:08;7.60;97.30
18868;DHT22;9563;49.240;9.088;2023-02-28T14:08:55;7.60;95.50
18868;DHT22;9563;49.240;9.088;2023-02-28T14:11:29;7.60;95.00
18868;DHT22;9563;49.240;9.088;2023-02-28T14:13:57;7.40;95.80
18868;DHT22;9563;49.240;9.088;2023-02-28T14:16:25;7.40;95.90
18868;DHT22;9563;49.240;9.088;2023-02-28T14:18:57;7.30;95.80
18868;DHT22;9563;49.240;9.088;2023-02-28T14:21:27;7.40;97.00
18868;DHT22;9563;49.240;9.088;2023-02-28T14:27:15;7.50;96.50
18868;DHT22;9563;49.240;9.088;2023-02-28T14:30:14;7.60;96.30
18868;DHT22;9563;49.240;9.088;2023-02-28T14:32:47;7.70;96.50
18868;DHT22;9563;49.240;9.088;2023-02-28T14:35:26;7.70;95.70
18868;DHT22;9563;49.240;9.088;2023-02-28T14:37:56;7.60;95.70
18868;DHT22;9563;49.240;9.088;2023-02-28T14:40:29;7.30;96.00
18868;DHT22;9563;49.240;9.088;2023-02-28T14:42:59;7.20;96.10
18868;DHT22;9563;49.240;9.088;2023-02-28T14:45:29;7.30;97.40
18868;DHT22;9563;49.240;9.088;2023-02-28T14:47:57;7.30;96.50
18868;DHT22;9563;49.240;9.088;2023-02-28T14:50:29;7.30;96.70
18868;DHT22;9563;49.240;9.088;2023-02-28T14:52:57;7.40;96.10
18868;DHT22;9563;49.240;9.088;2023-02-28T14:55:28;7.50;95.60
18868;DHT22;9563;49.240;9.088;2023-02-28T14:57:57;7.40;95.50
18868;DHT22;9563;49.240;9.088;2023-02-28T15:00:26;7.50;96.20
18868;DHT22;9563;49.240;9.088;2023-02-28T15:02:54;7.50;96.10
18868;DHT22;9563;49.240;9.088;2023-02-28T15:05:29;7.70;96.20
18868;DHT22;9563;49.240;9.088;2023-02-28T15:08:12;7.70;95.40
18868;DHT22;9563;49.240;9.088;2023-02-28T15:10:43;7.90;95.30
18868;DHT22;9563;49.240;9.088;2023-02-28T15:13:13;7.90;95.30
18868;DHT22;9563;49.240;9.088;2023-02-28T15:15:45;8.10;95.10
18868;DHT22;9563;49.240;9.088;2023-02-28T15:18:20;8.30;94.60
18868;DHT22;9563;49.240;9.088;2023-02-28T15:20:50;8.40;94.50
18868;DHT22;9563;49.240;9.088;2023-02-28T15:23:18;8.30;93.70
18868;DHT22;9563;49.240;9.088;2023-02-28T15:25:48;8.30;94.70
18868;DHT22;9563;49.240;9.088;2023-02-28T15:28:19;8.20;94.60
18868;DHT22;9563;49.240;9.088;2023-02-28T15:30:55;8.10;94.30
18868;DHT22;9563;49.240;9.088;2023-02-28T15:33:24;8.10;94.80
18868;DHT22;9563;49.240;9.088;2023-02-28T15:36:03;8.00;93.90
18868;DHT22;9563;49.240;9.088;2023-02-28T15:38:34;8.20;95.20
18868;DHT22;9563;49.240;9.088;2023-02-28T15:41:03;8.30;95.10
18868;DHT22;9563;49.240;9.088;2023-02-28T15:43:37;8.50;95.00
18868;DHT22;9563;49.240;9.088;2023-02-28T15:46:06;8.40;93.70
18868;DHT22;9563;49.240;9.088;2023-02-28T15:48:36;8.20;93.50
18868;DHT22;9563;49.240;9.088;2023-02-28T15:51:07;7.90;94.70
18868;DHT22;9563;49.240;9.088;2023-02-28T15:53:37;7.90;95.00
18868;DHT22;9563;49.240;9.088;2023-02-28T15:56:24;7.90;94.80
18868;DHT22;9563;49.240;9.088;2023-02-28T15:58:53;7.70;94.80
18868;DHT22;9563;49.240;9.088;2023-02-28T16:01:25;7.50;95.50
18868;DHT22;9563;49.240;9.088;2023-02-28T16:03:55;7.20;95.70
18868;DHT22;9563;49.240;9.088;2023-02-28T16:06:34;7.20;96.10
18868;DHT22;9563;49.240;9.088;2023-02-28T16:09:02;7.00;96.60
18868;DHT22;9563;49.240;9.088;2023-02-28T16:11:33;7.00;97.00
18868;DHT22;9563;49.240;9.088;2023-02-28T16:14:01;7.10;97.20
18868;DHT22;9563;49.240;9.088;2023-02-28T16:16:28;7.00;97.00
18868;DHT22;9563;49.240;9.088;2023-02-28T16:18:55;7.10;97.80
18868;DHT22;9563;49.240;9.088;2023-02-28T16:21:22;7.00;97.50
18868;DHT22;9563;49.240;9.088;2023-02-28T16:23:50;7.00;96.90
18868;DHT22;9563;49.240;9.088;2023-02-28T16:26:21;7.00;96.90
18868;DHT22;9563;49.240;9.088;2023-02-28T16:28:51;6.80;97.20
18868;DHT22;9563;49.240;9.088;2023-02-28T16:31:18;6.60;98.40
18868;DHT22;9563;49.240;9.088;2023-02-28T16:33:46;6.50;98.20
18868;DHT22;9563;49.240;9.088;2023-02-28T16:36:16;6.40;98.90
18868;DHT22;9563;49.240;9.088;2023-02-28T16:38:43;6.30;99.00
18868;DHT22;9563;49.240;9.088;2023-02-28T16:41:12;6.30;99.30
18868;DHT22;9563;49.240;9.088;2023-02-28T16:43:45;6.30;98.70
18868;DHT22;9563;49.240;9.088;2023-02-28T16:46:14;6.20;99.80
18868;DHT22;9563;49.240;9.088;2023-02-28T16:48:42;6.20;99.30
18868;DHT22;9563;49.240;9.088;2023-02-28T16:51:12;6.20;99.30
18868;DHT22;9563;49.240;9.088;2023-02-28T16:53:39;6.00;99.60
18868;DHT22;9563;49.240;9.088;2023-02-28T16:56:09;5.70;99.90